Dades meteomassalio
Diari Summary for Febrer 2, 2018 Units:  Both    English   Metric
« Previous Day
Next Day »
Diari Semanal Mensual Anual Personalitzat
  Maxima: Minima: Mijana:
Temperatura: TemperatureC °F /  -17.8 °C 2.8 °F /  -16.2 °C 4.8 °F /  -15.1 °C
Rosada: DewpointC °F /  -17.8 °C -4.3 °F /  -20.2 °C -0.2 °F /  -17.9 °C
Humitat: Humidity % 44 % 71 %
Velocitat del vent: WindSpeedKMH mph /  0 km/h - 28.2 mph /  45.4 km/h
Racha vent: WindSpeedGustKMH mph /  0 km/h - -
Vent:- - NW
Pressio: PressurehPa in /  0 hPa 1010.4 in /  34212.1 hPa -
Pluja: 0.0 in /  0 mm    
Historical Graphs
 
 
Tabular Data for Febrer 2, 2018
Time Temperature Dew Point Pressure Wind Wind Speed Wind Gust Humidity Rainfall Rate (Hourly) solar Conditions
TemperatureC °F /  -17.8 °C DewpointC °F /  -17.8 °C PressurehPa in /  0 hPa Calm     Humidity % HourlyPrecipMM in /  0 mm SolarRadiationWatts/m^2 W/m2 Conditions
00:04 4.4 °F /  -15.3 °C 0.8 °F /  -17.3 °C 1011.4 in /  34246 hPa NNW 18.5 mph /  29.8 km/h 18.5 mph /  29.8 km/h 77 % 0.0 in /  0 mm 0.0 W/m2 RA
00:09 4.4 °F /  -15.3 °C 0.8 °F /  -17.3 °C 1011.7 in /  34256.2 hPa NNW 18.5 mph /  29.8 km/h 18.5 mph /  29.8 km/h 77 % 0.0 in /  0 mm 0.0 W/m2 CLR
00:14 4.4 °F /  -15.3 °C 0.8 °F /  -17.3 °C 1011.7 in /  34256.2 hPa NW 18.5 mph /  29.8 km/h 18.5 mph /  29.8 km/h 77 % 0.0 in /  0 mm 0.0 W/m2 CLR
00:19 4.4 °F /  -15.3 °C 0.8 °F /  -17.3 °C 1011.7 in /  34256.2 hPa NNW 16.7 mph /  26.9 km/h 16.7 mph /  26.9 km/h 77 % 0.0 in /  0 mm 0.0 W/m2 CLR
00:24 4.4 °F /  -15.3 °C 0.8 °F /  -17.3 °C 1011.7 in /  34256.2 hPa NNW 27.4 mph /  44.1 km/h 27.4 mph /  44.1 km/h 77 % 0.0 in /  0 mm 0.0 W/m2 CLR
00:29 4.4 °F /  -15.3 °C 0.9 °F /  -17.3 °C 1011.7 in /  34256.2 hPa NW 22.2 mph /  35.7 km/h 22.2 mph /  35.7 km/h 78 % 0.0 in /  0 mm 0.0 W/m2 CLR
00:34 4.4 °F /  -15.3 °C 0.9 °F /  -17.3 °C 1011.7 in /  34256.2 hPa NNW 9.7 mph /  15.6 km/h 9.7 mph /  15.6 km/h 78 % 0.0 in /  0 mm 0.0 W/m2 CLR
00:39 4.4 °F /  -15.3 °C 0.9 °F /  -17.3 °C 1011.4 in /  34246 hPa NNW 16.7 mph /  26.9 km/h 16.7 mph /  26.9 km/h 78 % 0.0 in /  0 mm 0.0 W/m2 CLR
00:44 4.4 °F /  -15.3 °C 0.9 °F /  -17.3 °C 1011.4 in /  34246 hPa NW 24.1 mph /  38.8 km/h 24.1 mph /  38.8 km/h 78 % 0.0 in /  0 mm 0.0 W/m2 CLR
00:49 4.4 °F /  -15.3 °C 0.9 °F /  -17.3 °C 1011.4 in /  34246 hPa NNW 24.1 mph /  38.8 km/h 24.1 mph /  38.8 km/h 78 % 0.0 in /  0 mm 0.0 W/m2 CLR
00:54 3.9 °F /  -15.6 °C 0.4 °F /  -17.6 °C 1011.4 in /  34246 hPa NW 18.5 mph /  29.8 km/h 18.5 mph /  29.8 km/h 78 % 0.0 in /  0 mm 0.0 W/m2 CLR
00:59 3.9 °F /  -15.6 °C 0.4 °F /  -17.6 °C 1011.4 in /  34246 hPa NW 18.5 mph /  29.8 km/h 18.5 mph /  29.8 km/h 78 % 0.0 in /  0 mm 0.0 W/m2 CLR
01:04 3.9 °F /  -15.6 °C 0.6 °F /  -17.4 °C 1011.4 in /  34246 hPa NW 25.9 mph /  41.7 km/h 25.9 mph /  41.7 km/h 79 % 0.0 in /  0 mm 0.0 W/m2 CLR
01:09 3.9 °F /  -15.6 °C 0.4 °F /  -17.6 °C 1011.1 in /  34235.8 hPa NW 31.5 mph /  50.7 km/h 31.5 mph /  50.7 km/h 78 % 0.0 in /  0 mm 0.0 W/m2 CLR
01:14 3.9 °F /  -15.6 °C 0.6 °F /  -17.4 °C 1011.1 in /  34235.8 hPa NW 27.8 mph /  44.7 km/h 27.8 mph /  44.7 km/h 79 % 0.0 in /  0 mm 0.0 W/m2 CLR
01:19 3.9 °F /  -15.6 °C 0.4 °F /  -17.6 °C 1011.1 in /  34235.8 hPa NW 22.2 mph /  35.7 km/h 22.2 mph /  35.7 km/h 78 % 0.0 in /  0 mm 0.0 W/m2 CLR
01:24 3.9 °F /  -15.6 °C 0.4 °F /  -17.6 °C 1011.1 in /  34235.8 hPa NW 22.5 mph /  36.2 km/h 22.5 mph /  36.2 km/h 78 % 0.0 in /  0 mm 0.0 W/m2 CLR
01:29 3.9 °F /  -15.6 °C 0.4 °F /  -17.6 °C 1011.1 in /  34235.8 hPa NW 29.6 mph /  47.6 km/h 29.6 mph /  47.6 km/h 78 % 0.0 in /  0 mm 0.0 W/m2 CLR
01:34 3.9 °F /  -15.6 °C 0.4 °F /  -17.6 °C 1011.1 in /  34235.8 hPa WNW 27.8 mph /  44.7 km/h 27.8 mph /  44.7 km/h 78 % 0.0 in /  0 mm 0.0 W/m2 CLR
01:39 3.9 °F /  -15.6 °C 0.6 °F /  -17.4 °C 1011.1 in /  34235.8 hPa NW 14.8 mph /  23.8 km/h 14.8 mph /  23.8 km/h 79 % 0.0 in /  0 mm 0.0 W/m2 CLR
01:44 3.9 °F /  -15.6 °C 0.6 °F /  -17.4 °C 1011.1 in /  34235.8 hPa WNW 20.4 mph /  32.8 km/h 20.4 mph /  32.8 km/h 79 % 0.0 in /  0 mm 0.0 W/m2 CLR
01:49 3.9 °F /  -15.6 °C 0.6 °F /  -17.4 °C 1010.7 in /  34222.3 hPa NW 24.1 mph /  38.8 km/h 24.1 mph /  38.8 km/h 79 % 0.0 in /  0 mm 0.0 W/m2 CLR
01:54 3.9 °F /  -15.6 °C 0.6 °F /  -17.4 °C 1010.7 in /  34222.3 hPa NW 22.2 mph /  35.7 km/h 22.2 mph /  35.7 km/h 79 % 0.0 in /  0 mm 0.0 W/m2 CLR
01:59 3.9 °F /  -15.6 °C 0.6 °F /  -17.4 °C 1011.1 in /  34235.8 hPa WNW 14.5 mph /  23.3 km/h 14.5 mph /  23.3 km/h 79 % 0.0 in /  0 mm 0.0 W/m2 CLR
02:04 3.9 °F /  -15.6 °C 0.6 °F /  -17.4 °C 1011.1 in /  34235.8 hPa NW 16.7 mph /  26.9 km/h 16.7 mph /  26.9 km/h 79 % 0.0 in /  0 mm 0.0 W/m2 CLR
02:09 3.3 °F /  -15.9 °C 0.1 °F /  -17.7 °C 1010.7 in /  34222.3 hPa NW 14.8 mph /  23.8 km/h 14.8 mph /  23.8 km/h 79 % 0.0 in /  0 mm 0.0 W/m2 CLR
02:14 3.3 °F /  -15.9 °C 0.1 °F /  -17.7 °C 1010.7 in /  34222.3 hPa West 16.1 mph /  25.9 km/h 16.1 mph /  25.9 km/h 79 % 0.0 in /  0 mm 0.0 W/m2 CLR
02:19 3.3 °F /  -15.9 °C 0.1 °F /  -17.7 °C 1010.7 in /  34222.3 hPa WNW 16.7 mph /  26.9 km/h 16.7 mph /  26.9 km/h 79 % 0.0 in /  0 mm 0.0 W/m2 CLR
02:24 3.3 °F /  -15.9 °C 0.2 °F /  -17.7 °C 1011.1 in /  34235.8 hPa WNW 13.0 mph /  20.9 km/h 13.0 mph /  20.9 km/h 80 % 0.0 in /  0 mm 0.0 W/m2 CLR
02:29 3.3 °F /  -15.9 °C 0.2 °F /  -17.7 °C 1011.1 in /  34235.8 hPa WNW 19.3 mph /  31.1 km/h 19.3 mph /  31.1 km/h 80 % 0.0 in /  0 mm 0.0 W/m2 CLR
02:34 3.3 °F /  -15.9 °C 0.2 °F /  -17.7 °C 1011.1 in /  34235.8 hPa NW 16.7 mph /  26.9 km/h 16.7 mph /  26.9 km/h 80 % 0.0 in /  0 mm 0.0 W/m2 CLR
02:39 3.3 °F /  -15.9 °C 0.2 °F /  -17.7 °C 1011.1 in /  34235.8 hPa NW 16.7 mph /  26.9 km/h 16.7 mph /  26.9 km/h 80 % 0.0 in /  0 mm 0.0 W/m2 CLR
02:44 3.3 °F /  -15.9 °C 0.2 °F /  -17.7 °C 1011.1 in /  34235.8 hPa NW 14.8 mph /  23.8 km/h 14.8 mph /  23.8 km/h 80 % 0.0 in /  0 mm 0.0 W/m2 CLR
02:49 3.3 °F /  -15.9 °C 0.2 °F /  -17.7 °C 1011.1 in /  34235.8 hPa WNW 18.5 mph /  29.8 km/h 18.5 mph /  29.8 km/h 80 % 0.0 in /  0 mm 0.0 W/m2 CLR
02:54 3.3 °F /  -15.9 °C 0.2 °F /  -17.7 °C 1011.1 in /  34235.8 hPa NW 22.2 mph /  35.7 km/h 22.2 mph /  35.7 km/h 80 % 0.0 in /  0 mm 0.0 W/m2 CLR
02:59 3.3 °F /  -15.9 °C 0.4 °F /  -17.6 °C 1011.1 in /  34235.8 hPa NW 16.7 mph /  26.9 km/h 16.7 mph /  26.9 km/h 81 % 0.0 in /  0 mm 0.0 W/m2 CLR
03:04 3.3 °F /  -15.9 °C 0.4 °F /  -17.6 °C 1011.1 in /  34235.8 hPa NW 20.4 mph /  32.8 km/h 20.4 mph /  32.8 km/h 81 % 0.0 in /  0 mm 0.0 W/m2 CLR
03:09 3.3 °F /  -15.9 °C 0.4 °F /  -17.6 °C 1011.1 in /  34235.8 hPa NW 20.4 mph /  32.8 km/h 20.4 mph /  32.8 km/h 81 % 0.0 in /  0 mm 0.0 W/m2 CLR
03:14 3.3 °F /  -15.9 °C 0.4 °F /  -17.6 °C 1011.1 in /  34235.8 hPa NW 22.5 mph /  36.2 km/h 22.5 mph /  36.2 km/h 81 % 0.0 in /  0 mm 0.0 W/m2 CLR
03:19 3.3 °F /  -15.9 °C 0.4 °F /  -17.6 °C 1011.1 in /  34235.8 hPa NW 16.7 mph /  26.9 km/h 16.7 mph /  26.9 km/h 81 % 0.0 in /  0 mm 0.0 W/m2 CLR
03:24 3.3 °F /  -15.9 °C 0.4 °F /  -17.6 °C 1011.1 in /  34235.8 hPa NW 14.8 mph /  23.8 km/h 14.8 mph /  23.8 km/h 81 % 0.0 in /  0 mm 0.0 W/m2 CLR
03:29 3.3 °F /  -15.9 °C 0.4 °F /  -17.6 °C 1011.1 in /  34235.8 hPa WNW 14.8 mph /  23.8 km/h 14.8 mph /  23.8 km/h 81 % 0.0 in /  0 mm 0.0 W/m2 CLR
03:34 3.3 °F /  -15.9 °C 0.4 °F /  -17.6 °C 1011.1 in /  34235.8 hPa NW 16.7 mph /  26.9 km/h 16.7 mph /  26.9 km/h 81 % 0.0 in /  0 mm 0.0 W/m2 CLR
03:39 3.3 °F /  -15.9 °C 0.4 °F /  -17.6 °C 1010.7 in /  34222.3 hPa NNW 19.3 mph /  31.1 km/h 19.3 mph /  31.1 km/h 81 % 0.0 in /  0 mm 0.0 W/m2 CLR
03:45 3.3 °F /  -15.9 °C 0.4 °F /  -17.6 °C 1010.7 in /  34222.3 hPa NW 20.4 mph /  32.8 km/h 20.4 mph /  32.8 km/h 81 % 0.0 in /  0 mm 0.0 W/m2 CLR
03:50 3.3 °F /  -15.9 °C 0.6 °F /  -17.4 °C 1011.1 in /  34235.8 hPa NW 11.3 mph /  18.2 km/h 11.3 mph /  18.2 km/h 82 % 0.0 in /  0 mm 0.0 W/m2 CLR
03:55 3.3 °F /  -15.9 °C 0.6 °F /  -17.4 °C 1011.1 in /  34235.8 hPa NNW 20.4 mph /  32.8 km/h 20.4 mph /  32.8 km/h 82 % 0.0 in /  0 mm 0.0 W/m2 CLR
04:00 3.3 °F /  -15.9 °C 0.6 °F /  -17.4 °C 1011.1 in /  34235.8 hPa WNW 14.8 mph /  23.8 km/h 14.8 mph /  23.8 km/h 82 % 0.0 in /  0 mm 0.0 W/m2 CLR
04:05 3.3 °F /  -15.9 °C 0.6 °F /  -17.4 °C 1010.7 in /  34222.3 hPa NW 16.7 mph /  26.9 km/h 16.7 mph /  26.9 km/h 82 % 0.0 in /  0 mm 0.0 W/m2 CLR
04:10 3.3 °F /  -15.9 °C 0.6 °F /  -17.4 °C 1011.1 in /  34235.8 hPa NW 18.5 mph /  29.8 km/h 18.5 mph /  29.8 km/h 82 % 0.0 in /  0 mm 0.0 W/m2 CLR
04:15 3.3 °F /  -15.9 °C 0.6 °F /  -17.4 °C 1010.7 in /  34222.3 hPa NW 17.7 mph /  28.5 km/h 17.7 mph /  28.5 km/h 82 % 0.0 in /  0 mm 0.0 W/m2 CLR
04:20 3.3 °F /  -15.9 °C 0.6 °F /  -17.4 °C 1010.7 in /  34222.3 hPa NNW 16.7 mph /  26.9 km/h 16.7 mph /  26.9 km/h 82 % 0.0 in /  0 mm 0.0 W/m2 CLR
04:25 3.3 °F /  -15.9 °C 0.7 °F /  -17.4 °C 1010.7 in /  34222.3 hPa NNW 18.5 mph /  29.8 km/h 18.5 mph /  29.8 km/h 83 % 0.0 in /  0 mm 0.0 W/m2 CLR
04:30 3.3 °F /  -15.9 °C 0.7 °F /  -17.4 °C 1010.7 in /  34222.3 hPa NW 17.7 mph /  28.5 km/h 17.7 mph /  28.5 km/h 83 % 0.0 in /  0 mm 0.0 W/m2 CLR
04:35 3.3 °F /  -15.9 °C 0.7 °F /  -17.4 °C 1010.7 in /  34222.3 hPa NW 16.7 mph /  26.9 km/h 16.7 mph /  26.9 km/h 83 % 0.0 in /  0 mm 0.0 W/m2 CLR
04:40 3.3 °F /  -15.9 °C 0.7 °F /  -17.4 °C 1010.7 in /  34222.3 hPa NW 14.8 mph /  23.8 km/h 14.8 mph /  23.8 km/h 83 % 0.0 in /  0 mm 0.0 W/m2 CLR
04:45 3.3 °F /  -15.9 °C 0.7 °F /  -17.4 °C 1010.7 in /  34222.3 hPa North 18.5 mph /  29.8 km/h 18.5 mph /  29.8 km/h 83 % 0.0 in /  0 mm 0.0 W/m2 CLR
04:50 3.3 °F /  -15.9 °C 0.9 °F /  -17.3 °C 1010.4 in /  34212.1 hPa NW 14.8 mph /  23.8 km/h 14.8 mph /  23.8 km/h 84 % 0.0 in /  0 mm 0.0 W/m2 CLR
04:55 3.3 °F /  -15.9 °C 0.9 °F /  -17.3 °C 1010.4 in /  34212.1 hPa NW 17.7 mph /  28.5 km/h 17.7 mph /  28.5 km/h 84 % 0.0 in /  0 mm 0.0 W/m2 CLR
05:00 3.3 °F /  -15.9 °C 0.9 °F /  -17.3 °C 1010.4 in /  34212.1 hPa NW 14.8 mph /  23.8 km/h 14.8 mph /  23.8 km/h 84 % 0.0 in /  0 mm 0.0 W/m2 CLR
05:05 3.3 °F /  -15.9 °C 0.9 °F /  -17.3 °C 1010.4 in /  34212.1 hPa NNW 14.8 mph /  23.8 km/h 14.8 mph /  23.8 km/h 84 % 0.0 in /  0 mm 0.0 W/m2 CLR
05:10 2.8 °F /  -16.2 °C 0.3 °F /  -17.6 °C 1010.4 in /  34212.1 hPa NW 18.5 mph /  29.8 km/h 18.5 mph /  29.8 km/h 84 % 0.0 in /  0 mm 0.0 W/m2 CLR
05:15 2.8 °F /  -16.2 °C 0.5 °F /  -17.5 °C 1010.4 in /  34212.1 hPa NW 13.0 mph /  20.9 km/h 13.0 mph /  20.9 km/h 85 % 0.0 in /  0 mm 0.0 W/m2 CLR
05:20 2.8 °F /  -16.2 °C 0.3 °F /  -17.6 °C 1010.4 in /  34212.1 hPa NW 14.8 mph /  23.8 km/h 14.8 mph /  23.8 km/h 84 % 0.0 in /  0 mm 0.0 W/m2 CLR
05:25 2.8 °F /  -16.2 °C 0.5 °F /  -17.5 °C 1010.4 in /  34212.1 hPa NNW 14.8 mph /  23.8 km/h 14.8 mph /  23.8 km/h 85 % 0.0 in /  0 mm 0.0 W/m2 CLR
05:30 2.8 °F /  -16.2 °C 0.5 °F /  -17.5 °C 1010.4 in /  34212.1 hPa NW 14.8 mph /  23.8 km/h 14.8 mph /  23.8 km/h 85 % 0.0 in /  0 mm 0.0 W/m2 CLR
05:35 2.8 °F /  -16.2 °C 0.5 °F /  -17.5 °C 1010.4 in /  34212.1 hPa NW 16.7 mph /  26.9 km/h 16.7 mph /  26.9 km/h 85 % 0.0 in /  0 mm 0.0 W/m2 CLR
05:40 3.3 °F /  -15.9 °C 1.1 °F /  -17.2 °C 1010.4 in /  34212.1 hPa NNW 20.9 mph /  33.6 km/h 20.9 mph /  33.6 km/h 85 % 0.0 in /  0 mm 0.0 W/m2 CLR
05:45 3.3 °F /  -15.9 °C 1.1 °F /  -17.2 °C 1010.4 in /  34212.1 hPa NNW 24.1 mph /  38.8 km/h 24.1 mph /  38.8 km/h 85 % 0.0 in /  0 mm 0.0 W/m2 CLR
05:50 3.3 °F /  -15.9 °C 1.1 °F /  -17.2 °C 1010.4 in /  34212.1 hPa NW 18.5 mph /  29.8 km/h 18.5 mph /  29.8 km/h 85 % 0.0 in /  0 mm 0.0 W/m2 CLR
05:55 3.3 °F /  -15.9 °C 1.1 °F /  -17.2 °C 1010.4 in /  34212.1 hPa NW 20.4 mph /  32.8 km/h 20.4 mph /  32.8 km/h 85 % 0.0 in /  0 mm 0.0 W/m2 CLR
06:00 3.3 °F /  -15.9 °C 1.1 °F /  -17.2 °C 1010.4 in /  34212.1 hPa NW 14.8 mph /  23.8 km/h 14.8 mph /  23.8 km/h 85 % 0.0 in /  0 mm 0.0 W/m2 CLR
06:05 3.3 °F /  -15.9 °C 1.1 °F /  -17.2 °C 1010.4 in /  34212.1 hPa NW 16.1 mph /  25.9 km/h 16.1 mph /  25.9 km/h 85 % 0.0 in /  0 mm 0.0 W/m2 CLR
06:10 3.3 °F /  -15.9 °C 1.1 °F /  -17.2 °C 1010.4 in /  34212.1 hPa NW 14.8 mph /  23.8 km/h 14.8 mph /  23.8 km/h 85 % 0.0 in /  0 mm 0.0 W/m2 CLR
06:15 2.8 °F /  -16.2 °C 0.5 °F /  -17.5 °C 1010.4 in /  34212.1 hPa NNW 18.5 mph /  29.8 km/h 18.5 mph /  29.8 km/h 85 % 0.0 in /  0 mm 0.0 W/m2 CLR
06:20 2.8 °F /  -16.2 °C 0.5 °F /  -17.5 °C 1010.4 in /  34212.1 hPa NNW 18.5 mph /  29.8 km/h 18.5 mph /  29.8 km/h 85 % 0.0 in /  0 mm 0.0 W/m2 CLR
06:25 2.8 °F /  -16.2 °C 0.5 °F /  -17.5 °C 1010.4 in /  34212.1 hPa NW 14.8 mph /  23.8 km/h 14.8 mph /  23.8 km/h 85 % 0.0 in /  0 mm 0.0 W/m2 CLR
06:30 2.8 °F /  -16.2 °C 0.5 °F /  -17.5 °C 1010.7 in /  34222.3 hPa NW 9.7 mph /  15.6 km/h 9.7 mph /  15.6 km/h 85 % 0.0 in /  0 mm 0.0 W/m2 CLR
06:35 2.8 °F /  -16.2 °C 0.5 °F /  -17.5 °C 1010.7 in /  34222.3 hPa North 20.4 mph /  32.8 km/h 20.4 mph /  32.8 km/h 85 % 0.0 in /  0 mm 0.0 W/m2 CLR
06:40 3.3 °F /  -15.9 °C 1.1 °F /  -17.2 °C 1010.7 in /  34222.3 hPa NW 7.4 mph /  11.9 km/h 7.4 mph /  11.9 km/h 85 % 0.0 in /  0 mm 0.0 W/m2 CLR
06:45 3.3 °F /  -15.9 °C 1.1 °F /  -17.2 °C 1010.7 in /  34222.3 hPa NW 16.7 mph /  26.9 km/h 16.7 mph /  26.9 km/h 85 % 0.0 in /  0 mm 0.0 W/m2 CLR
06:50 3.3 °F /  -15.9 °C 1.1 °F /  -17.2 °C 1010.7 in /  34222.3 hPa NNW 9.7 mph /  15.6 km/h 9.7 mph /  15.6 km/h 85 % 0.0 in /  0 mm 0.0 W/m2 CLR
06:55 3.3 °F /  -15.9 °C 1.1 °F /  -17.2 °C 1010.7 in /  34222.3 hPa NW 9.3 mph /  15 km/h 9.3 mph /  15 km/h 85 % 0.0 in /  0 mm 0.0 W/m2 CLR
07:00 3.3 °F /  -15.9 °C 1.1 °F /  -17.2 °C 1010.7 in /  34222.3 hPa NW 14.8 mph /  23.8 km/h 14.8 mph /  23.8 km/h 85 % 0.0 in /  0 mm 0.0 W/m2 CLR
07:05 3.3 °F /  -15.9 °C 1.1 °F /  -17.2 °C 1010.7 in /  34222.3 hPa NW 16.7 mph /  26.9 km/h 16.7 mph /  26.9 km/h 85 % 0.0 in /  0 mm 0.0 W/m2 CLR
07:10 3.3 °F /  -15.9 °C 1.1 °F /  -17.2 °C 1010.7 in /  34222.3 hPa NW 16.7 mph /  26.9 km/h 16.7 mph /  26.9 km/h 85 % 0.0 in /  0 mm 0.0 W/m2 CLR
07:15 3.3 °F /  -15.9 °C 1.1 °F /  -17.2 °C 1010.7 in /  34222.3 hPa NNW 14.8 mph /  23.8 km/h 14.8 mph /  23.8 km/h 85 % 0.0 in /  0 mm 0.0 W/m2 CLR
07:20 3.3 °F /  -15.9 °C 1.1 °F /  -17.2 °C 1011.1 in /  34235.8 hPa WNW 18.5 mph /  29.8 km/h 18.5 mph /  29.8 km/h 85 % 0.0 in /  0 mm 0.0 W/m2 CLR
07:25 3.3 °F /  -15.9 °C 1.1 °F /  -17.2 °C 1011.1 in /  34235.8 hPa NW 20.4 mph /  32.8 km/h 20.4 mph /  32.8 km/h 85 % 0.0 in /  0 mm 0.0 W/m2 CLR
07:30 3.3 °F /  -15.9 °C 1.1 °F /  -17.2 °C 1011.1 in /  34235.8 hPa NW 19.3 mph /  31.1 km/h 19.3 mph /  31.1 km/h 85 % 0.0 in /  0 mm 0.0 W/m2 CLR
07:35 2.8 °F /  -16.2 °C 0.5 °F /  -17.5 °C 1011.1 in /  34235.8 hPa NNW 24.1 mph /  38.8 km/h 24.1 mph /  38.8 km/h 85 % 0.0 in /  0 mm 0.0 W/m2 CLR
07:40 2.8 °F /  -16.2 °C 0.7 °F /  -17.4 °C 1011.1 in /  34235.8 hPa NW 22.2 mph /  35.7 km/h 22.2 mph /  35.7 km/h 86 % 0.0 in /  0 mm 0.0 W/m2 CLR
07:45 2.8 °F /  -16.2 °C 0.7 °F /  -17.4 °C 1011.1 in /  34235.8 hPa NW 24.1 mph /  38.8 km/h 24.1 mph /  38.8 km/h 86 % 0.0 in /  0 mm 0.0 W/m2 CLR
07:50 2.8 °F /  -16.2 °C 0.7 °F /  -17.4 °C 1011.1 in /  34235.8 hPa NNW 29.6 mph /  47.6 km/h 29.6 mph /  47.6 km/h 86 % 0.0 in /  0 mm 0.0 W/m2 CLR
07:55 2.8 °F /  -16.2 °C 0.7 °F /  -17.4 °C 1011.1 in /  34235.8 hPa NNW 22.2 mph /  35.7 km/h 22.2 mph /  35.7 km/h 86 % 0.0 in /  0 mm 0.0 W/m2 CLR
08:00 2.8 °F /  -16.2 °C 0.7 °F /  -17.4 °C 1010.7 in /  34222.3 hPa NNW 29.6 mph /  47.6 km/h 29.6 mph /  47.6 km/h 86 % 0.0 in /  0 mm 0.0 W/m2 OVC
08:05 2.8 °F /  -16.2 °C 0.7 °F /  -17.4 °C 1011.1 in /  34235.8 hPa NNW 24.1 mph /  38.8 km/h 24.1 mph /  38.8 km/h 86 % 0.0 in /  0 mm 0.0 W/m2 OVC
08:10 2.8 °F /  -16.2 °C 0.7 °F /  -17.4 °C 1011.1 in /  34235.8 hPa NNW 31.5 mph /  50.7 km/h 31.5 mph /  50.7 km/h 86 % 0.0 in /  0 mm 0.0 W/m2 OVC
08:15 2.8 °F /  -16.2 °C 0.7 °F /  -17.4 °C 1011.1 in /  34235.8 hPa NW 25.9 mph /  41.7 km/h 25.9 mph /  41.7 km/h 86 % 0.0 in /  0 mm 0.0 W/m2 OVC
08:20 2.8 °F /  -16.2 °C 0.7 °F /  -17.4 °C 1011.1 in /  34235.8 hPa NNW 29.6 mph /  47.6 km/h 29.6 mph /  47.6 km/h 86 % 0.0 in /  0 mm 5.0 W/m2 OVC
08:25 2.8 °F /  -16.2 °C 0.8 °F /  -17.3 °C 1011.1 in /  34235.8 hPa NNW 20.9 mph /  33.6 km/h 20.9 mph /  33.6 km/h 87 % 0.0 in /  0 mm 7.0 W/m2 BKN
08:30 2.8 °F /  -16.2 °C 0.8 °F /  -17.3 °C 1011.1 in /  34235.8 hPa NNW 20.9 mph /  33.6 km/h 20.9 mph /  33.6 km/h 87 % 0.0 in /  0 mm 9.0 W/m2 BKN
08:35 2.8 °F /  -16.2 °C 0.8 °F /  -17.3 °C 1011.1 in /  34235.8 hPa NNW 22.2 mph /  35.7 km/h 22.2 mph /  35.7 km/h 87 % 0.0 in /  0 mm 14.0 W/m2 BKN
08:40 2.8 °F /  -16.2 °C 0.8 °F /  -17.3 °C 1011.1 in /  34235.8 hPa NW 22.2 mph /  35.7 km/h 22.2 mph /  35.7 km/h 87 % 0.0 in /  0 mm 19.0 W/m2 BKN
08:45 2.8 °F /  -16.2 °C 0.8 °F /  -17.3 °C 1011.4 in /  34246 hPa NW 17.7 mph /  28.5 km/h 17.7 mph /  28.5 km/h 87 % 0.0 in /  0 mm 25.0 W/m2 BKN
08:50 2.8 °F /  -16.2 °C 0.8 °F /  -17.3 °C 1011.4 in /  34246 hPa WNW 29.6 mph /  47.6 km/h 29.6 mph /  47.6 km/h 87 % 0.0 in /  0 mm 30.0 W/m2 BKN
08:55 2.8 °F /  -16.2 °C 0.7 °F /  -17.4 °C 1011.4 in /  34246 hPa North 20.9 mph /  33.6 km/h 20.9 mph /  33.6 km/h 86 % 0.0 in /  0 mm 30.0 W/m2 BKN
09:00 2.8 °F /  -16.2 °C 0.7 °F /  -17.4 °C 1011.4 in /  34246 hPa NW 24.1 mph /  38.8 km/h 24.1 mph /  38.8 km/h 86 % 0.0 in /  0 mm 32.0 W/m2 BKN
09:05 2.8 °F /  -16.2 °C 0.7 °F /  -17.4 °C 1011.7 in /  34256.2 hPa West 20.9 mph /  33.6 km/h 20.9 mph /  33.6 km/h 86 % 0.0 in /  0 mm 32.0 W/m2 BKN
09:10 2.8 °F /  -16.2 °C 0.7 °F /  -17.4 °C 1011.7 in /  34256.2 hPa NW 18.5 mph /  29.8 km/h 18.5 mph /  29.8 km/h 86 % 0.0 in /  0 mm 33.0 W/m2 BKN
09:15 2.8 °F /  -16.2 °C 0.7 °F /  -17.4 °C 1011.7 in /  34256.2 hPa NW 16.7 mph /  26.9 km/h 16.7 mph /  26.9 km/h 86 % 0.0 in /  0 mm 37.0 W/m2 BKN
09:20 2.8 °F /  -16.2 °C 0.7 °F /  -17.4 °C 1011.7 in /  34256.2 hPa NW 18.5 mph /  29.8 km/h 18.5 mph /  29.8 km/h 86 % 0.0 in /  0 mm 42.0 W/m2 BKN
09:25 2.8 °F /  -16.2 °C 0.5 °F /  -17.5 °C 1011.7 in /  34256.2 hPa NW 7.4 mph /  11.9 km/h 7.4 mph /  11.9 km/h 85 % 0.0 in /  0 mm 42.0 W/m2 BKN
09:30 2.8 °F /  -16.2 °C 0.5 °F /  -17.5 °C 1012.1 in /  34269.7 hPa NNW 16.7 mph /  26.9 km/h 16.7 mph /  26.9 km/h 85 % 0.0 in /  0 mm 49.0 W/m2 BKN
09:36 3.3 °F /  -15.9 °C 0.9 °F /  -17.3 °C 1011.7 in /  34256.2 hPa NNW 22.2 mph /  35.7 km/h 22.2 mph /  35.7 km/h 84 % 0.0 in /  0 mm 54.0 W/m2 SCT
09:41 3.3 °F /  -15.9 °C 0.9 °F /  -17.3 °C 1012.1 in /  34269.7 hPa WNW 14.8 mph /  23.8 km/h 14.8 mph /  23.8 km/h 84 % 0.0 in /  0 mm 53.0 W/m2 SCT
09:46 3.3 °F /  -15.9 °C 0.9 °F /  -17.3 °C 1011.7 in /  34256.2 hPa NW 20.4 mph /  32.8 km/h 20.4 mph /  32.8 km/h 84 % 0.0 in /  0 mm 62.0 W/m2 SCT
09:51 3.3 °F /  -15.9 °C 0.9 °F /  -17.3 °C 1011.7 in /  34256.2 hPa NW 18.5 mph /  29.8 km/h 18.5 mph /  29.8 km/h 84 % 0.0 in /  0 mm 67.0 W/m2 SCT
09:56 3.3 °F /  -15.9 °C 0.9 °F /  -17.3 °C 1012.1 in /  34269.7 hPa NNW 18.5 mph /  29.8 km/h 18.5 mph /  29.8 km/h 84 % 0.0 in /  0 mm 77.0 W/m2 FEW
10:01 3.3 °F /  -15.9 °C 0.9 °F /  -17.3 °C 1012.1 in /  34269.7 hPa NW 16.7 mph /  26.9 km/h 16.7 mph /  26.9 km/h 84 % 0.0 in /  0 mm 84.0 W/m2 FEW
10:06 3.3 °F /  -15.9 °C 0.7 °F /  -17.4 °C 1012.1 in /  34269.7 hPa NNW 16.7 mph /  26.9 km/h 16.7 mph /  26.9 km/h 83 % 0.0 in /  0 mm 91.0 W/m2 FEW
10:11 3.3 °F /  -15.9 °C 0.7 °F /  -17.4 °C 1012.1 in /  34269.7 hPa NW 18.5 mph /  29.8 km/h 18.5 mph /  29.8 km/h 83 % 0.0 in /  0 mm 120.0 W/m2 CLR
10:16 3.3 °F /  -15.9 °C 0.7 °F /  -17.4 °C 1012.1 in /  34269.7 hPa NNW 22.2 mph /  35.7 km/h 22.2 mph /  35.7 km/h 83 % 0.0 in /  0 mm 127.0 W/m2 CLR
10:21 3.3 °F /  -15.9 °C 0.7 °F /  -17.4 °C 1012.1 in /  34269.7 hPa NW 18.5 mph /  29.8 km/h 18.5 mph /  29.8 km/h 83 % 0.0 in /  0 mm 204.0 W/m2 CLR
10:26 3.9 °F /  -15.6 °C 1.3 °F /  -17.1 °C 1011.7 in /  34256.2 hPa NW 14.5 mph /  23.3 km/h 14.5 mph /  23.3 km/h 83 % 0.0 in /  0 mm 155.0 W/m2 CLR
10:31 3.9 °F /  -15.6 °C 1.1 °F /  -17.2 °C 1011.7 in /  34256.2 hPa NW 24.1 mph /  38.8 km/h 24.1 mph /  38.8 km/h 82 % 0.0 in /  0 mm 118.0 W/m2 CLR
10:36 3.9 °F /  -15.6 °C 0.9 °F /  -17.3 °C 1011.7 in /  34256.2 hPa NW 20.4 mph /  32.8 km/h 20.4 mph /  32.8 km/h 81 % 0.0 in /  0 mm 163.0 W/m2 CLR
10:41 3.9 °F /  -15.6 °C 0.9 °F /  -17.3 °C 1011.7 in /  34256.2 hPa NNW 25.9 mph /  41.7 km/h 25.9 mph /  41.7 km/h 81 % 0.0 in /  0 mm 144.0 W/m2 CLR
10:46 3.9 °F /  -15.6 °C 0.9 °F /  -17.3 °C 1011.7 in /  34256.2 hPa NW 29.6 mph /  47.6 km/h 29.6 mph /  47.6 km/h 81 % 0.0 in /  0 mm 158.0 W/m2 CLR
10:51 3.9 °F /  -15.6 °C 0.9 °F /  -17.3 °C 1011.7 in /  34256.2 hPa NW 24.1 mph /  38.8 km/h 24.1 mph /  38.8 km/h 81 % 0.0 in /  0 mm 167.0 W/m2 CLR
10:56 3.9 °F /  -15.6 °C 0.8 °F /  -17.3 °C 1011.7 in /  34256.2 hPa NW 29.6 mph /  47.6 km/h 29.6 mph /  47.6 km/h 80 % 0.0 in /  0 mm 142.0 W/m2 CLR
11:01 4.4 °F /  -15.3 °C 1.3 °F /  -17.1 °C 1011.7 in /  34256.2 hPa NNW 25.9 mph /  41.7 km/h 25.9 mph /  41.7 km/h 80 % 0.0 in /  0 mm 165.0 W/m2 CLR
11:06 4.4 °F /  -15.3 °C 1.1 °F /  -17.2 °C 1012.1 in /  34269.7 hPa NNW 27.8 mph /  44.7 km/h 27.8 mph /  44.7 km/h 79 % 0.0 in /  0 mm 149.0 W/m2 CLR
11:11 4.4 °F /  -15.3 °C 1.1 °F /  -17.2 °C 1012.1 in /  34269.7 hPa NW 31.5 mph /  50.7 km/h 31.5 mph /  50.7 km/h 79 % 0.0 in /  0 mm 171.0 W/m2 CLR
11:16 4.4 °F /  -15.3 °C 1.1 °F /  -17.2 °C 1012.1 in /  34269.7 hPa NNW 25.9 mph /  41.7 km/h 25.9 mph /  41.7 km/h 79 % 0.0 in /  0 mm 188.0 W/m2 CLR
11:21 4.4 °F /  -15.3 °C 1.1 °F /  -17.2 °C 1012.1 in /  34269.7 hPa NNW 35.2 mph /  56.6 km/h 35.2 mph /  56.6 km/h 79 % 0.0 in /  0 mm 295.0 W/m2 CLR
11:26 4.4 °F /  -15.3 °C 1.1 °F /  -17.2 °C 1012.1 in /  34269.7 hPa NW 42.6 mph /  68.6 km/h 42.6 mph /  68.6 km/h 79 % 0.0 in /  0 mm 199.0 W/m2 CLR
11:31 4.4 °F /  -15.3 °C 0.9 °F /  -17.3 °C 1012.4 in /  34279.9 hPa North 32.2 mph /  51.8 km/h 32.2 mph /  51.8 km/h 78 % 0.0 in /  0 mm 193.0 W/m2 CLR
11:36 4.4 °F /  -15.3 °C 1.1 °F /  -17.2 °C 1012.1 in /  34269.7 hPa NNW 24.1 mph /  38.8 km/h 24.1 mph /  38.8 km/h 79 % 0.0 in /  0 mm 209.0 W/m2 CLR
11:41 5.0 °F /  -15 °C 1.5 °F /  -16.9 °C 1012.1 in /  34269.7 hPa NNW 29.6 mph /  47.6 km/h 29.6 mph /  47.6 km/h 78 % 0.0 in /  0 mm 195.0 W/m2 CLR
11:46 5.0 °F /  -15 °C 1.5 °F /  -16.9 °C 1012.1 in /  34269.7 hPa North 33.8 mph /  54.4 km/h 33.8 mph /  54.4 km/h 78 % 0.0 in /  0 mm 181.0 W/m2 CLR
11:51 5.0 °F /  -15 °C 1.3 °F /  -17.1 °C 1012.1 in /  34269.7 hPa North 37.0 mph /  59.5 km/h 37.0 mph /  59.5 km/h 77 % 0.0 in /  0 mm 415.0 W/m2 CLR
11:56 5.6 °F /  -14.7 °C 1.7 °F /  -16.8 °C 1012.1 in /  34269.7 hPa NNW 33.3 mph /  53.6 km/h 33.3 mph /  53.6 km/h 76 % 0.0 in /  0 mm 269.0 W/m2 CLR
12:01 5.6 °F /  -14.7 °C 1.7 °F /  -16.8 °C 1012.1 in /  34269.7 hPa North 25.9 mph /  41.7 km/h 25.9 mph /  41.7 km/h 76 % 0.0 in /  0 mm 332.0 W/m2 CLR
12:06 6.1 °F /  -14.4 °C 2.0 °F /  -16.7 °C 1012.1 in /  34269.7 hPa NW 33.3 mph /  53.6 km/h 33.3 mph /  53.6 km/h 75 % 0.0 in /  0 mm 406.0 W/m2 CLR
12:11 6.1 °F /  -14.4 °C 2.2 °F /  -16.6 °C 1012.1 in /  34269.7 hPa NNW 37.0 mph /  59.5 km/h 37.0 mph /  59.5 km/h 76 % 0.0 in /  0 mm 480.0 W/m2 CLR
12:16 6.1 °F /  -14.4 °C 2.0 °F /  -16.7 °C 1012.1 in /  34269.7 hPa North 38.6 mph /  62.1 km/h 38.6 mph /  62.1 km/h 75 % 0.0 in /  0 mm 445.0 W/m2 CLR
12:21 6.7 °F /  -14.1 °C 2.2 °F /  -16.6 °C 1012.1 in /  34269.7 hPa North 31.5 mph /  50.7 km/h 31.5 mph /  50.7 km/h 73 % 0.0 in /  0 mm 527.0 W/m2 CLR
12:26 6.7 °F /  -14.1 °C 2.3 °F /  -16.5 °C 1012.1 in /  34269.7 hPa North 29.6 mph /  47.6 km/h 29.6 mph /  47.6 km/h 74 % 0.0 in /  0 mm 512.0 W/m2 CLR
12:31 6.7 °F /  -14.1 °C 2.2 °F /  -16.6 °C 1011.7 in /  34256.2 hPa NNW 33.3 mph /  53.6 km/h 33.3 mph /  53.6 km/h 73 % 0.0 in /  0 mm 434.0 W/m2 CLR
12:36 7.2 °F /  -13.8 °C 2.5 °F /  -16.4 °C 1011.7 in /  34256.2 hPa NNW 37.0 mph /  59.5 km/h 37.0 mph /  59.5 km/h 72 % 0.0 in /  0 mm 397.0 W/m2 CLR
12:41 7.2 °F /  -13.8 °C 2.5 °F /  -16.4 °C 1011.7 in /  34256.2 hPa NNW 40.7 mph /  65.5 km/h 40.7 mph /  65.5 km/h 72 % 0.0 in /  0 mm 387.0 W/m2 CLR
12:46 7.2 °F /  -13.8 °C 2.5 °F /  -16.4 °C 1011.7 in /  34256.2 hPa NNW 40.7 mph /  65.5 km/h 40.7 mph /  65.5 km/h 72 % 0.0 in /  0 mm 359.0 W/m2 CLR
12:51 6.7 °F /  -14.1 °C 1.6 °F /  -16.9 °C 1011.7 in /  34256.2 hPa North 42.6 mph /  68.6 km/h 42.6 mph /  68.6 km/h 70 % 0.0 in /  0 mm 366.0 W/m2 CLR
12:56 6.7 °F /  -14.1 °C 1.6 °F /  -16.9 °C 1011.7 in /  34256.2 hPa NNW 42.6 mph /  68.6 km/h 42.6 mph /  68.6 km/h 70 % 0.0 in /  0 mm 429.0 W/m2 CLR
13:01 7.2 °F /  -13.8 °C 2.1 °F /  -16.6 °C 1011.4 in /  34246 hPa North 38.9 mph /  62.6 km/h 38.9 mph /  62.6 km/h 70 % 0.0 in /  0 mm 612.0 W/m2 CLR
13:06 7.8 °F /  -13.4 °C 2.7 °F /  -16.3 °C 1011.4 in /  34246 hPa NNW 37.0 mph /  59.5 km/h 37.0 mph /  59.5 km/h 70 % 0.0 in /  0 mm 580.0 W/m2 CLR
13:11 7.8 °F /  -13.4 °C 2.2 °F /  -16.6 °C 1011.4 in /  34246 hPa North 43.4 mph /  69.8 km/h 43.4 mph /  69.8 km/h 68 % 0.0 in /  0 mm 506.0 W/m2 CLR
13:16 7.8 °F /  -13.4 °C 2.2 °F /  -16.6 °C 1011.4 in /  34246 hPa NNW 42.6 mph /  68.6 km/h 42.6 mph /  68.6 km/h 68 % 0.0 in /  0 mm 445.0 W/m2 CLR
13:21 8.3 °F /  -13.2 °C 2.8 °F /  -16.2 °C 1011.4 in /  34246 hPa North 37.0 mph /  59.5 km/h 37.0 mph /  59.5 km/h 68 % 0.0 in /  0 mm 381.0 W/m2 CLR
13:26 8.3 °F /  -13.2 °C 2.6 °F /  -16.3 °C 1011.4 in /  34246 hPa North 48.3 mph /  77.7 km/h 48.3 mph /  77.7 km/h 67 % 0.0 in /  0 mm 468.0 W/m2 CLR
13:31 8.3 °F /  -13.2 °C 2.1 °F /  -16.6 °C 1011.4 in /  34246 hPa North 33.3 mph /  53.6 km/h 33.3 mph /  53.6 km/h 65 % 0.0 in /  0 mm 561.0 W/m2 CLR
13:36 8.3 °F /  -13.2 °C 1.7 °F /  -16.8 °C 1011.4 in /  34246 hPa North 40.7 mph /  65.5 km/h 40.7 mph /  65.5 km/h 63 % 0.0 in /  0 mm 504.0 W/m2 CLR
13:41 8.3 °F /  -13.2 °C 1.4 °F /  -17 °C 1011.4 in /  34246 hPa NNW 37.0 mph /  59.5 km/h 37.0 mph /  59.5 km/h 62 % 0.0 in /  0 mm 448.0 W/m2 CLR
13:46 8.3 °F /  -13.2 °C 1.7 °F /  -16.8 °C 1011.1 in /  34235.8 hPa NNW 38.6 mph /  62.1 km/h 38.6 mph /  62.1 km/h 63 % 0.0 in /  0 mm 425.0 W/m2 CLR
13:51 8.3 °F /  -13.2 °C 1.4 °F /  -17 °C 1011.1 in /  34235.8 hPa North 38.9 mph /  62.6 km/h 38.9 mph /  62.6 km/h 62 % 0.0 in /  0 mm 471.0 W/m2 CLR
13:56 8.3 °F /  -13.2 °C 1.0 °F /  -17.2 °C 1011.1 in /  34235.8 hPa North 37.0 mph /  59.5 km/h 37.0 mph /  59.5 km/h 60 % 0.0 in /  0 mm 464.0 W/m2 CLR
14:01 8.9 °F /  -12.8 °C 1.6 °F /  -16.9 °C 1011.1 in /  34235.8 hPa NNW 48.1 mph /  77.4 km/h 48.1 mph /  77.4 km/h 60 % 0.0 in /  0 mm 559.0 W/m2 CLR
14:06 8.9 °F /  -12.8 °C 1.3 °F /  -17.1 °C 1011.1 in /  34235.8 hPa NNW 48.1 mph /  77.4 km/h 48.1 mph /  77.4 km/h 59 % 0.0 in /  0 mm 533.0 W/m2 CLR
14:11 8.9 °F /  -12.8 °C 1.3 °F /  -17.1 °C 1011.1 in /  34235.8 hPa NNW 38.9 mph /  62.6 km/h 38.9 mph /  62.6 km/h 59 % 0.0 in /  0 mm 524.0 W/m2 CLR
14:16 9.4 °F /  -12.6 °C 1.6 °F /  -16.9 °C 1011.1 in /  34235.8 hPa North 42.6 mph /  68.6 km/h 42.6 mph /  68.6 km/h 58 % 0.0 in /  0 mm 520.0 W/m2 CLR
14:21 8.9 °F /  -12.8 °C 1.1 °F /  -17.2 °C 1011.1 in /  34235.8 hPa NNW 33.8 mph /  54.4 km/h 33.8 mph /  54.4 km/h 58 % 0.0 in /  0 mm 517.0 W/m2 CLR
14:26 8.9 °F /  -12.8 °C 0.6 °F /  -17.4 °C 1010.7 in /  34222.3 hPa NNW 33.3 mph /  53.6 km/h 33.3 mph /  53.6 km/h 56 % 0.0 in /  0 mm 513.0 W/m2 CLR
14:31 9.4 °F /  -12.6 °C 0.6 °F /  -17.4 °C 1011.1 in /  34235.8 hPa North 40.2 mph /  64.7 km/h 40.2 mph /  64.7 km/h 54 % 0.0 in /  0 mm 406.0 W/m2 CLR
14:36 9.4 °F /  -12.6 °C 0.6 °F /  -17.4 °C 1011.1 in /  34235.8 hPa NNW 38.9 mph /  62.6 km/h 38.9 mph /  62.6 km/h 54 % 0.0 in /  0 mm 501.0 W/m2 CLR
14:41 9.4 °F /  -12.6 °C 0.3 °F /  -17.6 °C 1011.1 in /  34235.8 hPa North 32.2 mph /  51.8 km/h 32.2 mph /  51.8 km/h 53 % 0.0 in /  0 mm 492.0 W/m2 CLR
14:46 10.0 °F /  -12.2 °C 0.3 °F /  -17.6 °C 1010.7 in /  34222.3 hPa North 46.3 mph /  74.5 km/h 46.3 mph /  74.5 km/h 51 % 0.0 in /  0 mm 483.0 W/m2 CLR
14:51 9.4 °F /  -12.6 °C -0.2 °F /  -17.9 °C 1010.7 in /  34222.3 hPa NNW 46.3 mph /  74.5 km/h 46.3 mph /  74.5 km/h 51 % 0.0 in /  0 mm 476.0 W/m2 CLR
14:56 10.0 °F /  -12.2 °C -0.2 °F /  -17.9 °C 1010.7 in /  34222.3 hPa North 35.2 mph /  56.6 km/h 35.2 mph /  56.6 km/h 49 % 0.0 in /  0 mm 464.0 W/m2 CLR
15:01 10.0 °F /  -12.2 °C 0.3 °F /  -17.6 °C 1010.7 in /  34222.3 hPa NNW 42.6 mph /  68.6 km/h 42.6 mph /  68.6 km/h 51 % 0.0 in /  0 mm 457.0 W/m2 CLR
15:06 9.4 °F /  -12.6 °C -1.1 °F /  -18.4 °C 1010.7 in /  34222.3 hPa NNW 40.7 mph /  65.5 km/h 40.7 mph /  65.5 km/h 48 % 0.0 in /  0 mm 448.0 W/m2 CLR
15:11 9.4 °F /  -12.6 °C -1.1 °F /  -18.4 °C 1010.7 in /  34222.3 hPa North 37.0 mph /  59.5 km/h 37.0 mph /  59.5 km/h 48 % 0.0 in /  0 mm 441.0 W/m2 CLR
15:16 10.0 °F /  -12.2 °C -0.2 °F /  -17.9 °C 1010.7 in /  34222.3 hPa WNW 33.8 mph /  54.4 km/h 33.8 mph /  54.4 km/h 49 % 0.0 in /  0 mm 429.0 W/m2 CLR
15:21 10.0 °F /  -12.2 °C -0.8 °F /  -18.2 °C 1010.7 in /  34222.3 hPa North 32.2 mph /  51.8 km/h 32.2 mph /  51.8 km/h 47 % 0.0 in /  0 mm 422.0 W/m2 CLR
15:26 9.4 °F /  -12.6 °C -1.3 °F /  -18.5 °C 1010.7 in /  34222.3 hPa NNW 42.6 mph /  68.6 km/h 42.6 mph /  68.6 km/h 47 % 0.0 in /  0 mm 411.0 W/m2 CLR
15:31 9.4 °F /  -12.6 °C -1.3 °F /  -18.5 °C 1010.7 in /  34222.3 hPa North 37.0 mph /  59.5 km/h 37.0 mph /  59.5 km/h 47 % 0.0 in /  0 mm 401.0 W/m2 CLR
15:36 10.0 °F /  -12.2 °C -1.4 °F /  -18.6 °C 1010.7 in /  34222.3 hPa North 37.0 mph /  59.5 km/h 37.0 mph /  59.5 km/h 45 % 0.0 in /  0 mm 392.0 W/m2 CLR
15:41 9.4 °F /  -12.6 °C -2.2 °F /  -19 °C 1011.1 in /  34235.8 hPa NNW 55.5 mph /  89.3 km/h 55.5 mph /  89.3 km/h 44 % 0.0 in /  0 mm 378.0 W/m2 CLR
15:46 9.4 °F /  -12.6 °C -1.9 °F /  -18.8 °C 1011.1 in /  34235.8 hPa NNW 46.3 mph /  74.5 km/h 46.3 mph /  74.5 km/h 45 % 0.0 in /  0 mm 367.0 W/m2 CLR
15:51 9.4 °F /  -12.6 °C -1.6 °F /  -18.7 °C 1011.1 in /  34235.8 hPa North 51.8 mph /  83.4 km/h 51.8 mph /  83.4 km/h 46 % 0.0 in /  0 mm 359.0 W/m2 CLR
15:56 9.4 °F /  -12.6 °C -1.9 °F /  -18.8 °C 1011.1 in /  34235.8 hPa NNW 53.7 mph /  86.4 km/h 53.7 mph /  86.4 km/h 45 % 0.0 in /  0 mm 346.0 W/m2 CLR
16:01 9.4 °F /  -12.6 °C -1.6 °F /  -18.7 °C 1011.1 in /  34235.8 hPa NNW 42.6 mph /  68.6 km/h 42.6 mph /  68.6 km/h 46 % 0.0 in /  0 mm 334.0 W/m2 CLR
16:06 9.4 °F /  -12.6 °C -1.3 °F /  -18.5 °C 1011.1 in /  34235.8 hPa NNW 42.6 mph /  68.6 km/h 42.6 mph /  68.6 km/h 47 % 0.0 in /  0 mm 322.0 W/m2 CLR
16:11 8.9 °F /  -12.8 °C -2.4 °F /  -19.1 °C 1011.1 in /  34235.8 hPa North 42.6 mph /  68.6 km/h 42.6 mph /  68.6 km/h 45 % 0.0 in /  0 mm 308.0 W/m2 CLR
16:16 8.9 °F /  -12.8 °C -2.4 °F /  -19.1 °C 1011.1 in /  34235.8 hPa NW 40.7 mph /  65.5 km/h 40.7 mph /  65.5 km/h 45 % 0.0 in /  0 mm 297.0 W/m2 CLR
16:21 8.9 °F /  -12.8 °C -2.4 °F /  -19.1 °C 1011.4 in /  34246 hPa North 42.6 mph /  68.6 km/h 42.6 mph /  68.6 km/h 45 % 0.0 in /  0 mm 285.0 W/m2 CLR
16:26 8.9 °F /  -12.8 °C -2.7 °F /  -19.3 °C 1011.4 in /  34246 hPa North 53.7 mph /  86.4 km/h 53.7 mph /  86.4 km/h 44 % 0.0 in /  0 mm 267.0 W/m2 CLR
16:31 8.9 °F /  -12.8 °C -2.4 °F /  -19.1 °C 1011.4 in /  34246 hPa North 46.3 mph /  74.5 km/h 46.3 mph /  74.5 km/h 45 % 0.0 in /  0 mm 251.0 W/m2 CLR
16:36 8.3 °F /  -13.2 °C -2.9 °F /  -19.4 °C 1011.7 in /  34256.2 hPa North 48.1 mph /  77.4 km/h 48.1 mph /  77.4 km/h 45 % 0.0 in /  0 mm 237.0 W/m2 CLR
16:41 8.3 °F /  -13.2 °C -2.6 °F /  -19.2 °C 1011.7 in /  34256.2 hPa NNW 44.4 mph /  71.5 km/h 44.4 mph /  71.5 km/h 46 % 0.0 in /  0 mm 221.0 W/m2 CLR
16:46 8.3 °F /  -13.2 °C -2.9 °F /  -19.4 °C 1011.7 in /  34256.2 hPa North 51.8 mph /  83.4 km/h 51.8 mph /  83.4 km/h 45 % 0.0 in /  0 mm 202.0 W/m2 CLR
16:51 8.3 °F /  -13.2 °C -2.6 °F /  -19.2 °C 1011.7 in /  34256.2 hPa NNW 43.4 mph /  69.8 km/h 43.4 mph /  69.8 km/h 46 % 0.0 in /  0 mm 186.0 W/m2 CLR
16:56 8.3 °F /  -13.2 °C -2.6 °F /  -19.2 °C 1011.7 in /  34256.2 hPa NNW 51.8 mph /  83.4 km/h 51.8 mph /  83.4 km/h 46 % 0.0 in /  0 mm 171.0 W/m2 CLR
17:01 7.8 °F /  -13.4 °C -3.1 °F /  -19.5 °C 1011.7 in /  34256.2 hPa NNW 55.5 mph /  89.3 km/h 55.5 mph /  89.3 km/h 46 % 0.0 in /  0 mm 153.0 W/m2 CLR
17:06 7.8 °F /  -13.4 °C -3.1 °F /  -19.5 °C 1011.7 in /  34256.2 hPa NNW 50.0 mph /  80.5 km/h 50.0 mph /  80.5 km/h 46 % 0.0 in /  0 mm 135.0 W/m2 CLR
17:11 7.8 °F /  -13.4 °C -2.8 °F /  -19.3 °C 1011.7 in /  34256.2 hPa North 40.2 mph /  64.7 km/h 40.2 mph /  64.7 km/h 47 % 0.0 in /  0 mm 120.0 W/m2 CLR
17:16 7.8 °F /  -13.4 °C -3.4 °F /  -19.7 °C 1011.7 in /  34256.2 hPa North 46.3 mph /  74.5 km/h 46.3 mph /  74.5 km/h 45 % 0.0 in /  0 mm 105.0 W/m2 CLR
17:17 7.8 °F /  -13.4 °C -3.1 °F /  -19.5 °C 1011.7 in /  34256.2 hPa NNW 42.6 mph /  68.6 km/h 42.6 mph /  68.6 km/h 46 % 0.0 in /  0 mm 102.0 W/m2 CLR
17:22 7.8 °F /  -13.4 °C -3.1 °F /  -19.5 °C 1011.7 in /  34256.2 hPa North 42.6 mph /  68.6 km/h 42.6 mph /  68.6 km/h 46 % 0.0 in /  0 mm 88.0 W/m2 CLR
17:27 7.2 °F /  -13.8 °C -3.3 °F /  -19.6 °C 1011.7 in /  34256.2 hPa NNW 41.8 mph /  67.3 km/h 41.8 mph /  67.3 km/h 47 % 0.0 in /  0 mm 72.0 W/m2 FEW
17:32 7.2 °F /  -13.8 °C -3.7 °F /  -19.8 °C 1012.1 in /  34269.7 hPa NNW 44.4 mph /  71.5 km/h 44.4 mph /  71.5 km/h 46 % 0.0 in /  0 mm 56.0 W/m2 SCT
17:37 7.2 °F /  -13.8 °C -3.3 °F /  -19.6 °C 1011.7 in /  34256.2 hPa NW 42.6 mph /  68.6 km/h 42.6 mph /  68.6 km/h 47 % 0.0 in /  0 mm 42.0 W/m2 SCT
17:42 7.2 °F /  -13.8 °C -3.3 °F /  -19.6 °C 1012.1 in /  34269.7 hPa NW 40.7 mph /  65.5 km/h 40.7 mph /  65.5 km/h 47 % 0.0 in /  0 mm 35.0 W/m2 BKN
17:47 7.2 °F /  -13.8 °C -3.3 °F /  -19.6 °C 1012.1 in /  34269.7 hPa NNW 31.5 mph /  50.7 km/h 31.5 mph /  50.7 km/h 47 % 0.0 in /  0 mm 26.0 W/m2 BKN
17:52 6.7 °F /  -14.1 °C -3.6 °F /  -19.8 °C 1012.1 in /  34269.7 hPa NNW 35.2 mph /  56.6 km/h 35.2 mph /  56.6 km/h 48 % 0.0 in /  0 mm 19.0 W/m2 BKN
17:57 6.7 °F /  -14.1 °C -3.6 °F /  -19.8 °C 1012.1 in /  34269.7 hPa North 37.0 mph /  59.5 km/h 37.0 mph /  59.5 km/h 48 % 0.0 in /  0 mm 14.0 W/m2 BKN
18:02 6.7 °F /  -14.1 °C -3.6 °F /  -19.8 °C 1012.1 in /  34269.7 hPa North 33.8 mph /  54.4 km/h 33.8 mph /  54.4 km/h 48 % 0.0 in /  0 mm 12.0 W/m2 BKN
18:07 6.7 °F /  -14.1 °C -3.3 °F /  -19.6 °C 1012.4 in /  34279.9 hPa North 31.5 mph /  50.7 km/h 31.5 mph /  50.7 km/h 49 % 0.0 in /  0 mm 9.0 W/m2 BKN
18:12 6.1 °F /  -14.4 °C -3.8 °F /  -19.9 °C 1012.4 in /  34279.9 hPa NW 30.6 mph /  49.2 km/h 30.6 mph /  49.2 km/h 49 % 0.0 in /  0 mm 7.0 W/m2 BKN
18:17 6.1 °F /  -14.4 °C -3.8 °F /  -19.9 °C 1012.8 in /  34293.4 hPa North 35.4 mph /  57 km/h 35.4 mph /  57 km/h 49 % 0.0 in /  0 mm 5.0 W/m2 OVC
18:22 6.1 °F /  -14.4 °C -4.1 °F /  -20.1 °C 1012.8 in /  34293.4 hPa North 31.5 mph /  50.7 km/h 31.5 mph /  50.7 km/h 48 % 0.0 in /  0 mm 0.0 W/m2 OVC
18:27 6.1 °F /  -14.4 °C -4.1 °F /  -20.1 °C 1012.8 in /  34293.4 hPa NNW 29.6 mph /  47.6 km/h 29.6 mph /  47.6 km/h 48 % 0.0 in /  0 mm 0.0 W/m2 CLR
18:32 6.1 °F /  -14.4 °C -3.8 °F /  -19.9 °C 1013.1 in /  34303.6 hPa North 33.3 mph /  53.6 km/h 33.3 mph /  53.6 km/h 49 % 0.0 in /  0 mm 0.0 W/m2 CLR
18:37 5.6 °F /  -14.7 °C -4.3 °F /  -20.2 °C 1013.1 in /  34303.6 hPa NNW 31.5 mph /  50.7 km/h 31.5 mph /  50.7 km/h 49 % 0.0 in /  0 mm 0.0 W/m2 CLR
18:42 5.6 °F /  -14.7 °C -4.3 °F /  -20.2 °C 1013.1 in /  34303.6 hPa North 35.2 mph /  56.6 km/h 35.2 mph /  56.6 km/h 49 % 0.0 in /  0 mm 0.0 W/m2 CLR
18:47 5.6 °F /  -14.7 °C -4.1 °F /  -20.1 °C 1013.4 in /  34313.7 hPa NNW 24.1 mph /  38.8 km/h 24.1 mph /  38.8 km/h 50 % 0.0 in /  0 mm 0.0 W/m2 CLR
18:52 5.6 °F /  -14.7 °C -4.1 °F /  -20.1 °C 1013.4 in /  34313.7 hPa North 31.5 mph /  50.7 km/h 31.5 mph /  50.7 km/h 50 % 0.0 in /  0 mm 0.0 W/m2 CLR
18:58 5.6 °F /  -14.7 °C -4.3 °F /  -20.2 °C 1013.8 in /  34327.3 hPa NW 33.3 mph /  53.6 km/h 33.3 mph /  53.6 km/h 49 % 0.0 in /  0 mm 0.0 W/m2 CLR
19:03 5.6 °F /  -14.7 °C -4.1 °F /  -20.1 °C 1013.8 in /  34327.3 hPa NNW 29.6 mph /  47.6 km/h 29.6 mph /  47.6 km/h 50 % 0.0 in /  0 mm 0.0 W/m2 CLR
19:08 5.6 °F /  -14.7 °C -4.1 °F /  -20.1 °C 1013.8 in /  34327.3 hPa NW 31.5 mph /  50.7 km/h 31.5 mph /  50.7 km/h 50 % 0.0 in /  0 mm 0.0 W/m2 CLR
19:13 5.6 °F /  -14.7 °C -4.1 °F /  -20.1 °C 1014.1 in /  34337.4 hPa NNW 24.1 mph /  38.8 km/h 24.1 mph /  38.8 km/h 50 % 0.0 in /  0 mm 0.0 W/m2 CLR
19:18 5.6 °F /  -14.7 °C -4.1 °F /  -20.1 °C 1014.1 in /  34337.4 hPa North 32.2 mph /  51.8 km/h 32.2 mph /  51.8 km/h 50 % 0.0 in /  0 mm 0.0 W/m2 CLR
19:23 5.6 °F /  -14.7 °C -4.1 °F /  -20.1 °C 1014.1 in /  34337.4 hPa North 38.9 mph /  62.6 km/h 38.9 mph /  62.6 km/h 50 % 0.0 in /  0 mm 0.0 W/m2 CLR
19:28 5.6 °F /  -14.7 °C -3.8 °F /  -19.9 °C 1014.1 in /  34337.4 hPa North 48.3 mph /  77.7 km/h 48.3 mph /  77.7 km/h 51 % 0.0 in /  0 mm 0.0 W/m2 CLR
19:33 5.6 °F /  -14.7 °C -3.6 °F /  -19.8 °C 1014.4 in /  34347.6 hPa NNW 44.4 mph /  71.5 km/h 44.4 mph /  71.5 km/h 52 % 0.0 in /  0 mm 0.0 W/m2 CLR
19:38 5.0 °F /  -15 °C -3.8 °F /  -19.9 °C 1014.4 in /  34347.6 hPa NNW 37.0 mph /  59.5 km/h 37.0 mph /  59.5 km/h 53 % 0.0 in /  0 mm 0.0 W/m2 CLR
19:43 5.0 °F /  -15 °C -3.3 °F /  -19.6 °C 1014.8 in /  34361.1 hPa NNW 38.6 mph /  62.1 km/h 38.6 mph /  62.1 km/h 55 % 0.0 in /  0 mm 0.0 W/m2 CLR
19:48 5.0 °F /  -15 °C -3.1 °F /  -19.5 °C 1014.8 in /  34361.1 hPa NNW 44.4 mph /  71.5 km/h 44.4 mph /  71.5 km/h 56 % 0.0 in /  0 mm 0.0 W/m2 CLR
19:53 5.0 °F /  -15 °C -2.8 °F /  -19.3 °C 1014.8 in /  34361.1 hPa NNW 29.6 mph /  47.6 km/h 29.6 mph /  47.6 km/h 57 % 0.0 in /  0 mm 0.0 W/m2 CLR
19:58 5.0 °F /  -15 °C -2.3 °F /  -19.1 °C 1014.8 in /  34361.1 hPa NNW 33.3 mph /  53.6 km/h 33.3 mph /  53.6 km/h 59 % 0.0 in /  0 mm 0.0 W/m2 CLR
20:03 5.0 °F /  -15 °C -2.1 °F /  -18.9 °C 1014.8 in /  34361.1 hPa North 22.5 mph /  36.2 km/h 22.5 mph /  36.2 km/h 60 % 0.0 in /  0 mm 0.0 W/m2 CLR
20:08 4.4 °F /  -15.3 °C -2.0 °F /  -18.9 °C 1015.1 in /  34371.3 hPa NNW 35.2 mph /  56.6 km/h 35.2 mph /  56.6 km/h 63 % 0.0 in /  0 mm 0.0 W/m2 CLR
20:13 4.4 °F /  -15.3 °C -1.8 °F /  -18.8 °C 1015.1 in /  34371.3 hPa NNW 29.0 mph /  46.7 km/h 29.0 mph /  46.7 km/h 64 % 0.0 in /  0 mm 0.0 W/m2 CLR
20:18 4.4 °F /  -15.3 °C -1.3 °F /  -18.5 °C 1015.1 in /  34371.3 hPa NW 33.3 mph /  53.6 km/h 33.3 mph /  53.6 km/h 66 % 0.0 in /  0 mm 0.0 W/m2 CLR
20:23 4.4 °F /  -15.3 °C -1.2 °F /  -18.4 °C 1015.5 in /  34384.8 hPa NNW 27.8 mph /  44.7 km/h 27.8 mph /  44.7 km/h 67 % 0.0 in /  0 mm 0.0 W/m2 CLR
20:28 4.4 °F /  -15.3 °C -1.2 °F /  -18.4 °C 1015.5 in /  34384.8 hPa NNW 31.5 mph /  50.7 km/h 31.5 mph /  50.7 km/h 67 % 0.0 in /  0 mm 0.0 W/m2 CLR
20:33 4.4 °F /  -15.3 °C -1.2 °F /  -18.4 °C 1015.5 in /  34384.8 hPa NNW 33.8 mph /  54.4 km/h 33.8 mph /  54.4 km/h 67 % 0.0 in /  0 mm 0.0 W/m2 CLR
20:38 3.9 °F /  -15.6 °C -1.5 °F /  -18.6 °C 1015.5 in /  34384.8 hPa NNW 32.2 mph /  51.8 km/h 32.2 mph /  51.8 km/h 68 % 0.0 in /  0 mm 0.0 W/m2 CLR
20:43 3.9 °F /  -15.6 °C -1.5 °F /  -18.6 °C 1015.1 in /  34371.3 hPa NW 38.9 mph /  62.6 km/h 38.9 mph /  62.6 km/h 68 % 0.0 in /  0 mm 0.0 W/m2 CLR
20:48 3.9 °F /  -15.6 °C -1.3 °F /  -18.5 °C 1015.5 in /  34384.8 hPa NW 35.2 mph /  56.6 km/h 35.2 mph /  56.6 km/h 69 % 0.0 in /  0 mm 0.0 W/m2 CLR
20:53 3.9 °F /  -15.6 °C -1.3 °F /  -18.5 °C 1015.5 in /  34384.8 hPa NNW 31.5 mph /  50.7 km/h 31.5 mph /  50.7 km/h 69 % 0.0 in /  0 mm 0.0 W/m2 CLR
20:58 3.9 °F /  -15.6 °C -1.3 °F /  -18.5 °C 1015.5 in /  34384.8 hPa NNW 37.0 mph /  59.5 km/h 37.0 mph /  59.5 km/h 69 % 0.0 in /  0 mm 0.0 W/m2 CLR
21:03 3.9 °F /  -15.6 °C -1.1 °F /  -18.4 °C 1015.5 in /  34384.8 hPa North 29.6 mph /  47.6 km/h 29.6 mph /  47.6 km/h 70 % 0.0 in /  0 mm 0.0 W/m2 CLR
21:08 3.9 °F /  -15.6 °C -1.1 °F /  -18.4 °C 1015.8 in /  34395 hPa NW 29.6 mph /  47.6 km/h 29.6 mph /  47.6 km/h 70 % 0.0 in /  0 mm 0.0 W/m2 CLR
21:13 3.9 °F /  -15.6 °C -1.1 °F /  -18.4 °C 1015.8 in /  34395 hPa NNW 25.9 mph /  41.7 km/h 25.9 mph /  41.7 km/h 70 % 0.0 in /  0 mm 0.0 W/m2 CLR
21:18 3.9 °F /  -15.6 °C -1.1 °F /  -18.4 °C 1015.8 in /  34395 hPa North 24.1 mph /  38.8 km/h 24.1 mph /  38.8 km/h 70 % 0.0 in /  0 mm 0.0 W/m2 CLR
21:21 3.3 °F /  -15.9 °C -1.6 °F /  -18.7 °C 1015.8 in /  34395 hPa NW 29.6 mph /  47.6 km/h 29.6 mph /  47.6 km/h 70 % 0.0 in /  0 mm 0.0 W/m2 CLR
21:26 3.3 °F /  -15.9 °C -1.6 °F /  -18.7 °C 1015.8 in /  34395 hPa North 29.6 mph /  47.6 km/h 29.6 mph /  47.6 km/h 70 % 0.0 in /  0 mm 0.0 W/m2 CLR
21:31 3.3 °F /  -15.9 °C -1.6 °F /  -18.7 °C 1015.8 in /  34395 hPa North 30.6 mph /  49.2 km/h 30.6 mph /  49.2 km/h 70 % 0.0 in /  0 mm 0.0 W/m2 CLR
21:36 3.3 °F /  -15.9 °C -1.4 °F /  -18.6 °C 1016.1 in /  34405.1 hPa NNW 25.9 mph /  41.7 km/h 25.9 mph /  41.7 km/h 71 % 0.0 in /  0 mm 0.0 W/m2 CLR
21:41 3.3 °F /  -15.9 °C -1.4 °F /  -18.6 °C 1016.1 in /  34405.1 hPa NW 33.3 mph /  53.6 km/h 33.3 mph /  53.6 km/h 71 % 0.0 in /  0 mm 0.0 W/m2 CLR
21:46 3.3 °F /  -15.9 °C -1.4 °F /  -18.6 °C 1016.1 in /  34405.1 hPa NNW 35.4 mph /  57 km/h 35.4 mph /  57 km/h 71 % 0.0 in /  0 mm 0.0 W/m2 CLR
21:51 3.3 °F /  -15.9 °C -1.2 °F /  -18.4 °C 1016.1 in /  34405.1 hPa NNW 27.8 mph /  44.7 km/h 27.8 mph /  44.7 km/h 72 % 0.0 in /  0 mm 0.0 W/m2 CLR
21:56 3.3 °F /  -15.9 °C -1.1 °F /  -18.4 °C 1016.1 in /  34405.1 hPa NNW 35.2 mph /  56.6 km/h 35.2 mph /  56.6 km/h 73 % 0.0 in /  0 mm 0.0 W/m2 CLR
22:01 3.3 °F /  -15.9 °C -1.1 °F /  -18.4 °C 1016.5 in /  34418.7 hPa NNW 29.6 mph /  47.6 km/h 29.6 mph /  47.6 km/h 73 % 0.0 in /  0 mm 0.0 W/m2 CLR
22:06 3.3 °F /  -15.9 °C -0.9 °F /  -18.3 °C 1016.5 in /  34418.7 hPa NNW 31.5 mph /  50.7 km/h 31.5 mph /  50.7 km/h 74 % 0.0 in /  0 mm 0.0 W/m2 CLR
22:11 3.3 °F /  -15.9 °C -0.9 °F /  -18.3 °C 1016.5 in /  34418.7 hPa NNW 27.8 mph /  44.7 km/h 27.8 mph /  44.7 km/h 74 % 0.0 in /  0 mm 0.0 W/m2 CLR
22:16 2.8 °F /  -16.2 °C -1.2 °F /  -18.4 °C 1016.5 in /  34418.7 hPa NNW 37.0 mph /  59.5 km/h 37.0 mph /  59.5 km/h 75 % 0.0 in /  0 mm 0.0 W/m2 CLR
22:21 2.8 °F /  -16.2 °C -1.1 °F /  -18.4 °C 1016.5 in /  34418.7 hPa NNW 35.4 mph /  57 km/h 35.4 mph /  57 km/h 76 % 0.0 in /  0 mm 0.0 W/m2 CLR
22:26 2.8 °F /  -16.2 °C -1.1 °F /  -18.4 °C 1016.8 in /  34428.8 hPa NW 31.5 mph /  50.7 km/h 31.5 mph /  50.7 km/h 76 % 0.0 in /  0 mm 0.0 W/m2 CLR
22:31 2.8 °F /  -16.2 °C -1.1 °F /  -18.4 °C 1016.8 in /  34428.8 hPa NNW 31.5 mph /  50.7 km/h 31.5 mph /  50.7 km/h 76 % 0.0 in /  0 mm 0.0 W/m2 CLR
22:36 2.8 °F /  -16.2 °C -0.8 °F /  -18.2 °C 1016.8 in /  34428.8 hPa NNW 37.0 mph /  59.5 km/h 37.0 mph /  59.5 km/h 77 % 0.0 in /  0 mm 0.0 W/m2 CLR
22:41 2.8 °F /  -16.2 °C -0.8 °F /  -18.2 °C 1016.5 in /  34418.7 hPa NNW 31.5 mph /  50.7 km/h 31.5 mph /  50.7 km/h 77 % 0.0 in /  0 mm 0.0 W/m2 CLR
22:46 2.8 °F /  -16.2 °C -0.8 °F /  -18.2 °C 1016.5 in /  34418.7 hPa NW 31.5 mph /  50.7 km/h 31.5 mph /  50.7 km/h 77 % 0.0 in /  0 mm 0.0 W/m2 CLR
22:51 2.8 °F /  -16.2 °C -0.8 °F /  -18.2 °C 1016.8 in /  34428.8 hPa NNW 31.5 mph /  50.7 km/h 31.5 mph /  50.7 km/h 77 % 0.0 in /  0 mm 0.0 W/m2 CLR
22:56 2.8 °F /  -16.2 °C -0.8 °F /  -18.2 °C 1016.8 in /  34428.8 hPa NNW 29.6 mph /  47.6 km/h 29.6 mph /  47.6 km/h 77 % 0.0 in /  0 mm 0.0 W/m2 CLR
23:01 2.8 °F /  -16.2 °C -0.8 °F /  -18.2 °C 1016.8 in /  34428.8 hPa NNW 24.1 mph /  38.8 km/h 24.1 mph /  38.8 km/h 77 % 0.0 in /  0 mm 0.0 W/m2 CLR
23:06 2.8 °F /  -16.2 °C -0.8 °F /  -18.2 °C 1016.8 in /  34428.8 hPa NNW 22.2 mph /  35.7 km/h 22.2 mph /  35.7 km/h 77 % 0.0 in /  0 mm 0.0 W/m2 CLR
23:11 2.8 °F /  -16.2 °C -0.8 °F /  -18.2 °C 1016.8 in /  34428.8 hPa NNW 22.2 mph /  35.7 km/h 22.2 mph /  35.7 km/h 77 % 0.0 in /  0 mm 0.0 W/m2 CLR
23:16 2.8 °F /  -16.2 °C -0.8 °F /  -18.2 °C 1016.8 in /  34428.8 hPa North 25.9 mph /  41.7 km/h 25.9 mph /  41.7 km/h 77 % 0.0 in /  0 mm 0.0 W/m2 CLR
23:21 2.8 °F /  -16.2 °C -0.8 °F /  -18.2 °C 1016.8 in /  34428.8 hPa North 22.5 mph /  36.2 km/h 22.5 mph /  36.2 km/h 77 % 0.0 in /  0 mm 0.0 W/m2 CLR
23:26 2.8 °F /  -16.2 °C -1.1 °F /  -18.4 °C 1016.8 in /  34428.8 hPa North 22.2 mph /  35.7 km/h 22.2 mph /  35.7 km/h 76 % 0.0 in /  0 mm 0.0 W/m2 CLR
23:31 2.8 °F /  -16.2 °C -0.8 °F /  -18.2 °C 1016.8 in /  34428.8 hPa North 31.5 mph /  50.7 km/h 31.5 mph /  50.7 km/h 77 % 0.0 in /  0 mm 0.0 W/m2 CLR
23:36 2.8 °F /  -16.2 °C -0.8 °F /  -18.2 °C 1016.8 in /  34428.8 hPa NNW 31.5 mph /  50.7 km/h 31.5 mph /  50.7 km/h 77 % 0.0 in /  0 mm 0.0 W/m2 CLR
23:41 2.8 °F /  -16.2 °C -0.8 °F /  -18.2 °C 1017.2 in /  34442.4 hPa North 37.0 mph /  59.5 km/h 37.0 mph /  59.5 km/h 77 % 0.0 in /  0 mm 0.0 W/m2 CLR
23:46 2.8 °F /  -16.2 °C -0.8 °F /  -18.2 °C 1017.2 in /  34442.4 hPa NNW 24.1 mph /  38.8 km/h 24.1 mph /  38.8 km/h 77 % 0.0 in /  0 mm 0.0 W/m2 CLR
23:51 2.8 °F /  -16.2 °C -0.7 °F /  -18.2 °C 1017.2 in /  34442.4 hPa North 31.5 mph /  50.7 km/h 31.5 mph /  50.7 km/h 78 % 0.0 in /  0 mm 0.0 W/m2 CLR
23:56 2.8 °F /  -16.2 °C -0.7 °F /  -18.2 °C 1017.2 in /  34442.4 hPa North 24.1 mph /  38.8 km/h 24.1 mph /  38.8 km/h 78 % 0.0 in /  0 mm 0.0 W/m2 CLR
Lo Temps de Massalio
Compliments of Weather Underground - 1.25 mb